Ninaview, Colorado
Current Conditions -  °F | °C
As of 3:53 PM on Saturday 20 Dec 2014 (Local Time) from KLHX Reporting Station
Clear Clear  
Wind Chill: 40°   Ceiling: Unl
Heat Index: 44°   Visibility: 10mi
Dew Point: 28°   Wind: 8mph
Humidity: 53%   Direction: 130°SE
Pressure: 29.94"   Gusts: NA
Location:  37.8567°N, 103.111°W
Report Text: KLHX 202253Z AUTO 13007KT 10SM CLR 07/M02 A2994 RMK AO2 SLP147 T00671022
Loading
Personal Weather Stations






























Interactive Weather Map New forecast layout! Learn more

10-Day Weather Forecast

Advertisements
Track Severe Weather on mobile